»·PEaware :: DIHNF KYKM-S31

DIHNF :: KYKM-S31

FLIGHT INFORMATION

Flight Status: Arrived
Operator: Unknown
More flights by this operator :: More flights under this callsign
Pilot: Klaus A. (15485)
Aircraft: PIPER PA-34 SENECA
(PA34)
More flights by this aircraft type
Origin: KYKM Yakima Air Term/Mcallister
United States
Destination: S31 Lopez Island
United States
More flights between these airports :: More routes between these airports
Route: +
File this flight plan on PilotEdge
Remarks:
Altitude:
(Current/Filed)
12,500ft
Speed:
(Current/Filed)
160kts
Departed: 16-May-20 10:09 AM
Arrived: 16-May-20 11:11 AM
Distance/Time
Traveled:
150nm/1:02
Distance/Time
To Go:
Arrived

Flight Plot

Page will automatically refresh every two minutes.


Map Options




Map Legend


Flown Route
Filed Route
Departure Airport
Arrival Airport
Navaid (VOR, NDB)
Fix

Horizontal Profiles

Position Reports

Time Latitude Longitude Heading Altitude Ground
Speed
16-May-20 09:36 46.570095 -120.538144 105 1102ft 0kts
16-May-20 09:37 46.570095 -120.538144 105 1102ft 0kts
16-May-20 09:38 46.570095 -120.538144 105 1102ft 0kts
16-May-20 09:39 46.570095 -120.538144 105 1102ft 0kts
16-May-20 09:40 46.570095 -120.538144 105 1102ft 0kts
16-May-20 09:47 46.570095 -120.538144 105 1102ft 0kts
16-May-20 09:48 46.570095 -120.538144 105 1102ft 0kts
16-May-20 09:49 46.570095 -120.538144 105 1102ft 0kts
16-May-20 09:50 46.570095 -120.538144 105 1102ft 0kts
16-May-20 09:51 46.570095 -120.538144 105 1102ft 0kts
16-May-20 09:52 46.570095 -120.538144 105 1102ft 0kts
16-May-20 09:53 46.570095 -120.538144 105 1102ft 0kts
16-May-20 09:54 46.570095 -120.538144 105 1102ft 0kts
16-May-20 09:55 46.569798 -120.537794 178 1102ft 8kts
16-May-20 09:56 46.569421 -120.536833 59 1102ft 11kts
16-May-20 09:57 46.570076 -120.534132 148 1102ft 4kts
16-May-20 09:58 46.569997 -120.534083 163 1102ft 0kts
16-May-20 09:59 46.569996 -120.534083 162 1102ft 0kts
16-May-20 10:00 46.569997 -120.534083 163 1102ft 0kts
16-May-20 10:01 46.569997 -120.534083 163 1102ft 0kts
16-May-20 10:02 46.569997 -120.534083 163 1102ft 0kts
16-May-20 10:03 46.569997 -120.534083 163 1102ft 0kts
16-May-20 10:04 46.569997 -120.534083 163 1102ft 0kts
16-May-20 10:05 46.569997 -120.534083 163 1102ft 0kts
16-May-20 10:06 46.569997 -120.534083 163 1102ft 0kts
16-May-20 10:07 46.569716 -120.534033 189 1102ft 8kts
16-May-20 10:08 46.559634 -120.559950 256 1954ft 109kts
16-May-20 10:09 46.572258 -120.597550 335 3403ft 112kts
16-May-20 10:10 46.600112 -120.618318 328 4654ft 115kts
16-May-20 10:11 46.625639 -120.639176 325 5916ft 107kts
16-May-20 10:12 46.651751 -120.659143 336 7087ft 112kts
16-May-20 10:13 46.677958 -120.684000 316 8262ft 125kts
16-May-20 10:14 46.707742 -120.719005 316 9139ft 147kts
16-May-20 10:15 46.738993 -120.757027 310 10019ft 149kts
16-May-20 10:16 46.772795 -120.790636 317 10882ft 147kts
16-May-20 10:17 46.804260 -120.829875 320 11559ft 150kts
16-May-20 10:18 46.834942 -120.868003 312 12218ft 146kts
16-May-20 10:19 46.866707 -120.912934 306 12491ft 169kts
16-May-20 10:20 46.902129 -120.960140 310 12633ft 167kts
16-May-20 10:21 46.931961 -121.008999 306 12591ft 161kts
16-May-20 10:22 46.972255 -121.036450 305 12609ft 159kts
16-May-20 10:23 47.001652 -121.084701 307 12594ft 160kts
16-May-20 10:24 47.037174 -121.125667 310 12602ft 164kts
16-May-20 10:25 47.072107 -121.168782 309 12602ft 164kts
16-May-20 10:26 47.107824 -121.212269 310 12598ft 167kts
16-May-20 10:27 47.143087 -121.257233 308 12596ft 168kts
16-May-20 10:28 47.179953 -121.296739 315 12602ft 170kts
16-May-20 10:30 47.221048 -121.332672 314 12608ft 170kts
16-May-20 10:31 47.257299 -121.377447 311 12607ft 170kts
16-May-20 10:32 47.293582 -121.422636 312 12582ft 171kts
16-May-20 10:33 47.329875 -121.467510 312 12578ft 170kts
16-May-20 10:34 47.366158 -121.512304 312 12586ft 169kts
16-May-20 10:35 47.402581 -121.557490 312 12545ft 170kts
16-May-20 10:36 47.438705 -121.602380 312 12546ft 170kts
16-May-20 10:37 47.475313 -121.647939 312 12492ft 171kts
16-May-20 10:38 47.511810 -121.693443 311 12495ft 171kts
16-May-20 10:39 47.548252 -121.738999 311 12495ft 171kts
16-May-20 10:40 47.584525 -121.784343 311 12520ft 170kts
16-May-20 10:41 47.620879 -121.829903 311 12532ft 170kts
16-May-20 10:42 47.656755 -121.874913 311 12532ft 168kts
16-May-20 10:43 47.692375 -121.919755 311 12532ft 168kts
16-May-20 10:43 47.722115 -121.957247 311 12532ft 168kts
16-May-20 10:45 47.763698 -122.009758 311 12531ft 168kts
16-May-20 10:46 47.799290 -122.054787 311 12531ft 168kts
16-May-20 10:46 47.828899 -122.092310 311 12531ft 168kts
16-May-20 10:47 47.864536 -122.137532 311 12531ft 168kts
16-May-20 10:49 47.905958 -122.190263 311 12531ft 168kts
16-May-20 10:50 47.941481 -122.235520 311 12531ft 168kts
16-May-20 10:50 47.970947 -122.273163 311 12559ft 167kts
16-May-20 10:51 48.006441 -122.318519 311 12558ft 167kts
16-May-20 10:52 48.041834 -122.363878 311 12558ft 167kts
16-May-20 10:53 48.077241 -122.409384 311 12558ft 167kts
16-May-20 10:54 48.112121 -122.454289 311 12555ft 168kts
16-May-20 10:55 48.146636 -122.498544 311 12026ft 166kts
16-May-20 10:56 48.181744 -122.543882 311 11179ft 167kts
16-May-20 10:57 48.217147 -122.589628 311 10348ft 168kts
16-May-20 10:58 48.252713 -122.635768 312 9540ft 169kts
16-May-20 10:59 48.288804 -122.682657 311 8761ft 173kts
16-May-20 11:00 48.325486 -122.730396 311 7896ft 174kts
16-May-20 11:01 48.361845 -122.778029 317 6838ft 175kts
16-May-20 11:02 48.395656 -122.822047 320 5890ft 175kts
16-May-20 11:03 48.431524 -122.868877 321 4882ft 168kts
16-May-20 11:04 48.469948 -122.909627 345 3549ft 176kts
16-May-20 11:05 48.515630 -122.914514 358 2553ft 166kts
16-May-20 11:06 48.555417 -122.932915 283 1518ft 145kts
16-May-20 11:07 48.540503 -122.968511 189 1070ft 117kts
16-May-20 11:08 48.520642 -122.955046 112 743ft 110kts
16-May-20 11:09 48.497157 -122.938468 166 611ft 78kts
16-May-20 11:10 48.482006 -122.937683 29 203ft 4kts
16-May-20 11:11 48.483436 -122.937087 0 203ft 16kts
16-May-20 11:12 48.486153 -122.936594 271 203ft 0kts
16-May-20 11:13 48.486153 -122.936594 271 203ft 0kts
16-May-20 11:14 48.486153 -122.936594 271 203ft 0kts
16-May-20 11:15 48.486153 -122.936594 271 203ft 0kts
16-May-20 11:16 48.486153 -122.936594 271 203ft 0kts
16-May-20 11:17 48.486153 -122.936594 271 203ft 0kts
16-May-20 11:18 48.486153 -122.936594 271 203ft 0kts

Navigation Log

Ident Type
Flight plan parsing failed, navigation log unavailable